Terminal Aerodrome Forecast
Issued by NWS

Home | Current Version | Previous Version | Text Only | Print | Product List | Glossary On
Versions: 1 2 3 4 5 6 7 8 9 10 11 12 13 14 15 16 17 18 19 20 21 22 23 24 25 26 27
891
FTUS43 KDLH 040813 AAB
TAFHIB
TAF AMD
KHIB 040813Z 0408/0506 15008KT 3SM -SHSN BR OVC015
      TEMPO 0408/0412 1SM -SN BR
     FM041200 16008KT 2SM -SN OVC006
     FM041400 15007KT 1SM -SN OVC003
     FM050000 23006KT 2SM -SN OVC008
     FM050200 24006KT 4SM -SN OVC012
     FM050400 25005KT P6SM VCSH OVC015=

USA.gov is the U.S. government's official web portal to all federal, state and local government web resources and services.